Time;durP1;ratioP1;P1;durP2;ratioP2;P2;SDS_P1;SDS_P2;PMS_P1;PMS_P2;Temp;Humidity;BMP_temperature;BMP_pressure;BME280_temperature;BME280_humidity;BME280_pressure;Samples;Min_cycle;Max_cycle;Signal;HPM_P1;HPM_P2
2023/01/13 00:01:20;;;;;;;66.07;40.38;;;;;;;;;;6189027;23;20123;-89
2023/01/13 00:03:46;;;;;;;44.42;30.73;;;;;;;;;;6189076;23;20024;-90
2023/01/13 00:06:14;;;;;;;48.40;31.83;;;;;;;;;;6189016;23;20115;-90
2023/01/13 00:08:40;;;;;;;47.90;31.55;;;;;;;;;;6189065;23;20054;-92
2023/01/13 00:11:08;;;;;;;49.00;32.28;;;;;;;;;;6189032;23;20067;-91
2023/01/13 00:13:34;;;;;;;51.28;31.58;;;;;;;;;;6189031;23;20071;-91
2023/01/13 00:16:07;;;;;;;53.97;33.33;;;;;;;;;;6188925;23;20012;-91
2023/01/13 00:18:35;;;;;;;49.30;32.20;;;;;;;;;;6189239;23;20004;-91
2023/01/13 00:21:06;;;;;;;55.75;33.78;;;;;;;;;;6189070;23;20305;-90
2023/01/13 00:23:33;;;;;;;45.72;29.73;;;;;;;;;;6189859;23;20065;-90
2023/01/13 00:26:01;;;;;;;42.47;27.35;;;;;;;;;;6215912;23;20076;-91
2023/01/13 00:28:27;;;;;;;64.05;33.67;;;;;;;;;;6190510;23;20009;-91
2023/01/13 00:39:02;;;;;;;53.38;32.25;;;;;;;;;;6246816;22;20020;-90
2023/01/13 00:43:21;;;;;;;46.53;29.33;;;;;;;;;;6219008;23;20004;-89
2023/01/13 00:44:14;;;;;;;51.72;30.65;;;;;;;;;;6245098;23;20035;-90
2023/01/13 00:46:40;;;;;;;47.63;30.55;;;;;;;;;;6220216;23;20083;-90
2023/01/13 00:49:07;;;;;;;45.45;29.08;;;;;;;;;;6221510;23;20325;-90
2023/01/13 00:51:33;;;;;;;47.72;31.55;;;;;;;;;;6218771;23;20433;-90
2023/01/13 00:54:02;;;;;;;55.55;37.95;;;;;;;;;;6223765;23;20019;-89
2023/01/13 00:56:28;;;;;;;60.13;38.42;;;;;;;;;;6230277;23;20004;-90
2023/01/13 00:58:57;;;;;;;59.70;36.83;;;;;;;;;;6219386;23;20011;-90
2023/01/13 01:01:24;;;;;;;55.17;36.60;;;;;;;;;;6219143;23;20035;-90
2023/01/13 01:03:51;;;;;;;51.30;31.08;;;;;;;;;;6218772;23;20441;-89
2023/01/13 01:06:18;;;;;;;48.75;32.05;;;;;;;;;;6219487;23;20004;-90
2023/01/13 01:08:44;;;;;;;51.22;33.63;;;;;;;;;;6233123;23;20027;-89
2023/01/13 01:11:12;;;;;;;51.70;31.52;;;;;;;;;;6222843;23;20022;-90
2023/01/13 01:13:38;;;;;;;54.22;33.17;;;;;;;;;;6218710;23;20059;-91
2023/01/13 01:16:15;;;;;;;47.10;30.73;;;;;;;;;;6218145;23;20008;-90
2023/01/13 01:18:43;;;;;;;46.72;29.98;;;;;;;;;;6218237;23;20311;-90
2023/01/13 01:21:10;;;;;;;44.72;30.02;;;;;;;;;;6218507;23;20409;-89
2023/01/13 01:23:44;;;;;;;45.70;30.55;;;;;;;;;;5070191;27;20444;-90
2023/01/13 01:26:15;;;;;;;66.85;39.97;;;;;;;;;;5068090;28;20035;-90
2023/01/13 01:28:42;;;;;;;52.90;32.80;;;;;;;;;;5068109;28;20086;-91
2023/01/13 01:31:09;;;;;;;58.80;35.80;;;;;;;;;;5068201;28;20036;-91
2023/01/13 01:33:39;;;;;;;53.58;35.47;;;;;;;;;;5067956;28;20440;-91
2023/01/13 01:36:06;;;;;;;55.95;33.88;;;;;;;;;;5067947;28;20060;-91
2023/01/13 01:38:32;;;;;;;66.78;40.67;;;;;;;;;;5068535;28;20028;-92
2023/01/13 01:40:58;;;;;;;52.63;32.47;;;;;;;;;;5067676;28;20087;-91
2023/01/13 01:43:59;;;;;;;48.50;31.20;;;;;;;;;;5067833;28;20123;-91
2023/01/13 01:46:41;;;;;;;56.17;35.60;;;;;;;;;;5068160;28;20043;-90
2023/01/13 01:49:31;;;;;;;64.22;36.92;;;;;;;;;;5067843;28;20508;-91
2023/01/13 01:52:08;;;;;;;59.30;36.10;;;;;;;;;;5068077;28;20025;-89
2023/01/13 01:54:47;;;;;;;68.57;40.13;;;;;;;;;;5085927;28;20028;-91
2023/01/13 01:57:15;;;;;;;53.95;33.95;;;;;;;;;;5075146;28;20370;-91
2023/01/13 01:59:41;;;;;;;47.38;31.45;;;;;;;;;;5068400;28;20067;-90
2023/01/13 02:02:08;;;;;;;55.78;34.80;;;;;;;;;;5067645;28;20136;-90
2023/01/13 02:04:38;;;;;;;54.50;34.85;;;;;;;;;;5068902;28;20032;-89
2023/01/13 02:07:05;;;;;;;67.75;38.13;;;;;;;;;;5070202;28;20087;-91
2023/01/13 02:09:32;;;;;;;54.75;31.30;;;;;;;;;;5067629;28;20552;-91
2023/01/13 02:14:44;;;;;;;68.80;38.72;;;;;;;;;;5070454;28;20041;-91
2023/01/13 02:17:32;;;;;;;64.75;37.38;;;;;;;;;;5078942;28;20033;-91
2023/01/13 02:20:13;;;;;;;62.40;36.45;;;;;;;;;;5068366;28;20055;-89
2023/01/13 02:22:58;;;;;;;58.15;35.05;;;;;;;;;;5068783;28;20404;-91
2023/01/13 02:25:30;;;;;;;61.63;34.85;;;;;;;;;;5082850;28;20096;-90
2023/01/13 02:28:04;;;;;;;75.85;41.13;;;;;;;;;;5077447;28;20100;-90
2023/01/13 02:34:19;;;;;;;54.88;31.92;;;;;;;;;;5019837;28;20116;-89
2023/01/13 02:37:00;;;;;;;89.30;43.40;;;;;;;;;;5009958;28;20045;-89
2023/01/13 02:39:36;;;;;;;48.03;31.02;;;;;;;;;;5059154;28;20044;-90
2023/01/13 02:45:16;;;;;;;58.45;32.92;;;;;;;;;;5056953;28;20527;-90
2023/01/13 02:47:43;;;;;;;55.53;32.58;;;;;;;;;;5054712;28;20092;-89
2023/01/13 02:50:21;;;;;;;48.33;30.55;;;;;;;;;;5044304;28;20025;-90
2023/01/13 02:52:53;;;;;;;50.60;31.73;;;;;;;;;;5035020;28;20390;-91
2023/01/13 02:55:34;;;;;;;48.97;30.35;;;;;;;;;;5035137;28;20461;-90
2023/01/13 02:58:01;;;;;;;45.50;28.50;;;;;;;;;;5041609;28;20021;-89
2023/01/13 03:00:27;;;;;;;41.75;26.70;;;;;;;;;;5049234;28;20176;-90
2023/01/13 03:02:54;;;;;;;43.75;27.15;;;;;;;;;;5035400;28;20112;-91
2023/01/13 03:05:20;;;;;;;42.35;26.27;;;;;;;;;;5043125;28;20033;-91
2023/01/13 03:07:55;;;;;;;44.20;26.75;;;;;;;;;;5059864;28;20664;-91
2023/01/13 03:21:25;;;;;;;40.30;25.95;;;;;;;;;;5035694;28;20112;-89
2023/01/13 03:23:54;;;;;;;36.63;23.52;;;;;;;;;;5035148;28;20044;-90
2023/01/13 03:26:47;;;;;;;36.75;23.17;;;;;;;;;;5032574;28;20125;-90
2023/01/13 03:29:19;;;;;;;40.35;23.73;;;;;;;;;;5014663;28;20041;-91
2023/01/13 03:32:08;;;;;;;39.00;25.27;;;;;;;;;;5032553;28;20095;-90
2023/01/13 03:34:38;;;;;;;40.22;24.98;;;;;;;;;;5010999;28;20034;-91
2023/01/13 03:37:09;;;;;;;39.83;25.63;;;;;;;;;;5036693;28;20030;-89
2023/01/13 03:39:37;;;;;;;37.42;25.08;;;;;;;;;;5035532;28;20048;-89
2023/01/13 03:42:23;;;;;;;38.03;23.95;;;;;;;;;;5032531;28;20079;-90
2023/01/13 03:44:49;;;;;;;38.60;23.92;;;;;;;;;;5015372;28;20076;-90
2023/01/13 03:47:19;;;;;;;32.90;22.75;;;;;;;;;;5031950;28;20021;-90
2023/01/13 03:49:48;;;;;;;35.35;23.48;;;;;;;;;;5032290;28;20027;-90
2023/01/13 03:52:18;;;;;;;34.30;22.65;;;;;;;;;;5032226;28;20033;-90
2023/01/13 03:54:51;;;;;;;39.40;25.13;;;;;;;;;;5032278;28;20480;-91
2023/01/13 03:57:20;;;;;;;45.28;24.60;;;;;;;;;;5053937;22;20112;-89
2023/01/13 03:59:48;;;;;;;54.78;31.35;;;;;;;;;;5032756;28;20040;-90
2023/01/13 04:02:19;;;;;;;35.90;22.50;;;;;;;;;;5032349;28;20049;-90
2023/01/13 04:04:49;;;;;;;33.38;22.30;;;;;;;;;;5032636;28;20029;-90
2023/01/13 04:07:24;;;;;;;38.85;24.45;;;;;;;;;;5032701;28;20127;-91
2023/01/13 04:10:01;;;;;;;42.83;25.42;;;;;;;;;;5033014;28;20141;-90
2023/01/13 04:12:59;;;;;;;55.38;30.52;;;;;;;;;;5033604;28;20029;-90
2023/01/13 04:15:23;;;;;;;40.20;25.48;;;;;;;;;;5036828;28;20025;-89
2023/01/13 04:17:50;;;;;;;45.45;28.50;;;;;;;;;;5052746;28;20034;-90
2023/01/13 04:20:17;;;;;;;42.22;26.65;;;;;;;;;;5034679;28;20025;-90
2023/01/13 04:22:43;;;;;;;39.97;27.00;;;;;;;;;;5032098;28;20033;-90
2023/01/13 04:25:10;;;;;;;39.22;25.58;;;;;;;;;;5036934;28;20008;-89
2023/01/13 04:27:36;;;;;;;35.10;23.95;;;;;;;;;;5032884;28;20026;-90
2023/01/13 04:30:02;;;;;;;55.45;31.92;;;;;;;;;;5031235;28;20048;-90
2023/01/13 04:32:29;;;;;;;42.28;28.27;;;;;;;;;;5029231;28;20520;-90
2023/01/13 04:34:55;;;;;;;39.65;25.02;;;;;;;;;;5032601;28;20091;-90
2023/01/13 04:37:21;;;;;;;37.42;25.15;;;;;;;;;;5045012;28;20017;-90
2023/01/13 04:39:47;;;;;;;36.90;24.83;;;;;;;;;;5044527;28;20037;-91
2023/01/13 04:42:13;;;;;;;35.60;25.08;;;;;;;;;;5033402;28;20032;-90
2023/01/13 04:44:39;;;;;;;40.00;26.73;;;;;;;;;;5031465;28;20168;-90
2023/01/13 04:47:05;;;;;;;39.97;24.88;;;;;;;;;;5031270;28;20492;-89
2023/01/13 04:49:32;;;;;;;35.97;23.75;;;;;;;;;;5031320;28;20033;-90
2023/01/13 04:51:58;;;;;;;34.90;23.73;;;;;;;;;;5031223;28;20025;-89
2023/01/13 04:54:24;;;;;;;34.78;23.10;;;;;;;;;;5032740;28;20104;-88
2023/01/13 04:56:50;;;;;;;36.13;25.15;;;;;;;;;;5030513;28;20489;-90
2023/01/13 04:59:16;;;;;;;40.97;25.42;;;;;;;;;;5031322;28;20033;-91
2023/01/13 05:01:42;;;;;;;35.63;23.92;;;;;;;;;;5032825;28;20072;-88
2023/01/13 05:04:08;;;;;;;29.92;20.95;;;;;;;;;;5044693;28;20032;-88
2023/01/13 05:06:34;;;;;;;34.45;22.73;;;;;;;;;;5031663;28;20095;-91
2023/01/13 05:09:01;;;;;;;40.83;24.98;;;;;;;;;;5030872;28;20116;-91
2023/01/13 05:16:59;;;;;;;38.35;26.27;;;;;;;;;;5032150;28;20062;-91
2023/01/13 05:19:26;;;;;;;38.13;26.27;;;;;;;;;;5030822;28;20032;-90
2023/01/13 05:27:21;;;;;;;37.42;25.38;;;;;;;;;;5032137;28;20037;-90
2023/01/13 05:29:47;;;;;;;37.40;24.75;;;;;;;;;;5030723;28;20033;-89
2023/01/13 05:32:14;;;;;;;36.80;25.33;;;;;;;;;;5030700;28;20036;-88
2023/01/13 05:34:40;;;;;;;43.60;27.15;;;;;;;;;;5032283;28;20454;-89
2023/01/13 05:37:15;;;;;;;41.95;26.63;;;;;;;;;;5031007;28;20120;-88
2023/01/13 05:45:11;;;;;;;39.15;25.77;;;;;;;;;;5033085;28;20091;-89
2023/01/13 05:47:38;;;;;;;53.60;33.80;;;;;;;;;;5030814;28;20252;-90
2023/01/13 05:50:22;;;;;;;66.00;37.30;;;;;;;;;;5031715;28;20033;-88
2023/01/13 05:53:07;;;;;;;45.15;29.02;;;;;;;;;;5037060;28;20030;-91
2023/01/13 05:55:41;;;;;;;48.05;29.77;;;;;;;;;;5031829;28;20098;-88
2023/01/13 05:58:08;;;;;;;45.15;28.88;;;;;;;;;;5032941;28;20191;-88
2023/01/13 06:00:35;;;;;;;44.38;29.00;;;;;;;;;;5032692;28;20494;-88
2023/01/13 06:03:01;;;;;;;48.80;30.33;;;;;;;;;;5033358;28;20059;-89
2023/01/13 06:05:27;;;;;;;46.10;30.63;;;;;;;;;;5032675;28;20064;-89
2023/01/13 06:08:03;;;;;;;41.40;28.75;;;;;;;;;;5037971;28;20017;-90
2023/01/13 06:10:29;;;;;;;41.47;26.95;;;;;;;;;;5049276;28;20400;-89
2023/01/13 06:12:55;;;;;;;37.72;24.50;;;;;;;;;;5035352;28;20026;-89
2023/01/13 06:15:22;;;;;;;35.65;24.80;;;;;;;;;;5034270;28;20025;-90
2023/01/13 06:17:51;;;;;;;38.22;24.00;;;;;;;;;;5035778;28;20025;-90
2023/01/13 06:20:17;;;;;;;33.05;22.48;;;;;;;;;;5043629;28;20032;-91
2023/01/13 06:22:48;;;;;;;42.70;25.83;;;;;;;;;;5034335;28;20137;-89
2023/01/13 06:25:21;;;;;;;51.58;30.27;;;;;;;;;;5034834;28;20060;-90
2023/01/13 06:27:47;;;;;;;34.58;22.52;;;;;;;;;;5033728;28;20029;-90
2023/01/13 06:30:28;;;;;;;33.40;23.05;;;;;;;;;;5033901;28;20040;-91
2023/01/13 06:32:57;;;;;;;36.00;22.75;;;;;;;;;;5033580;28;20029;-89
2023/01/13 06:35:29;;;;;;;37.20;24.88;;;;;;;;;;5034005;28;20036;-90
2023/01/13 06:38:06;;;;;;;38.83;25.02;;;;;;;;;;5033573;28;20034;-90
2023/01/13 06:40:32;;;;;;;38.33;24.65;;;;;;;;;;5034325;28;20044;-89
2023/01/13 06:43:17;;;;;;;35.83;22.85;;;;;;;;;;5051417;28;20065;-91
2023/01/13 06:45:58;;;;;;;35.10;23.77;;;;;;;;;;5048142;28;20026;-90
2023/01/13 06:48:34;;;;;;;36.95;23.35;;;;;;;;;;5034037;28;20094;-89
2023/01/13 06:51:00;;;;;;;36.78;24.00;;;;;;;;;;5033875;28;20032;-90
2023/01/13 06:53:27;;;;;;;34.90;22.80;;;;;;;;;;5033404;28;20168;-90
2023/01/13 06:55:53;;;;;;;33.80;22.05;;;;;;;;;;5033643;28;20079;-89
2023/01/13 06:58:19;;;;;;;32.47;21.50;;;;;;;;;;5038298;28;20512;-90
2023/01/13 07:00:50;;;;;;;36.72;23.25;;;;;;;;;;5044015;28;20029;-90
2023/01/13 07:03:16;;;;;;;33.17;22.20;;;;;;;;;;5041582;28;20037;-89
2023/01/13 07:05:43;;;;;;;33.08;20.92;;;;;;;;;;5034091;28;20470;-89
2023/01/13 07:08:09;;;;;;;36.53;22.23;;;;;;;;;;5033269;28;20113;-89
2023/01/13 07:10:36;;;;;;;32.75;21.25;;;;;;;;;;5033394;28;20168;-89
2023/01/13 07:15:55;;;;;;;30.50;20.48;;;;;;;;;;5035653;28;20032;-89
2023/01/13 07:18:21;;;;;;;31.27;19.98;;;;;;;;;;5034642;28;20537;-89
2023/01/13 07:21:25;;;;;;;27.83;20.02;;;;;;;;;;5037533;28;20029;-89
2023/01/13 07:23:54;;;;;;;36.55;22.10;;;;;;;;;;4993506;28;20614;-92
2023/01/13 07:26:23;;;;;;;30.92;19.88;;;;;;;;;;4980736;28;20044;-91
2023/01/13 07:28:54;;;;;;;27.75;18.17;;;;;;;;;;4961308;28;20034;-91
2023/01/13 07:31:35;;;;;;;37.08;23.15;;;;;;;;;;4941200;29;20047;-92
2023/01/13 07:34:04;;;;;;;36.22;21.95;;;;;;;;;;4955584;29;20039;-91
2023/01/13 07:36:30;;;;;;;30.30;19.52;;;;;;;;;;4955675;29;20034;-90
2023/01/13 07:39:01;;;;;;;31.48;20.02;;;;;;;;;;4955094;29;20032;-90
2023/01/13 07:44:23;;;;;;;28.27;18.80;;;;;;;;;;4955693;29;20054;-91
2023/01/13 07:46:49;;;;;;;25.05;16.55;;;;;;;;;;4955734;29;20038;-91
2023/01/13 07:49:30;;;;;;;30.30;19.20;;;;;;;;;;4956676;29;20183;-91
2023/01/13 07:51:59;;;;;;;27.90;16.60;;;;;;;;;;5013060;28;20034;-90
2023/01/13 07:54:25;;;;;;;24.52;16.70;;;;;;;;;;5016306;28;20026;-90
2023/01/13 07:57:10;;;;;;;27.35;17.67;;;;;;;;;;5018437;28;20140;-90
2023/01/13 07:59:42;;;;;;;29.13;17.20;;;;;;;;;;5026020;28;20118;-90
2023/01/13 08:02:36;;;;;;;26.00;17.08;;;;;;;;;;5028823;28;20068;-89
2023/01/13 08:05:20;;;;;;;23.65;15.07;;;;;;;;;;5012045;28;20572;-91
2023/01/13 08:08:10;;;;;;;28.08;18.73;;;;;;;;;;5015521;28;20394;-89
2023/01/13 08:10:38;;;;;;;25.08;15.85;;;;;;;;;;5016159;28;20025;-89
2023/01/13 08:13:16;;;;;;;28.55;17.45;;;;;;;;;;5014185;28;20022;-89
2023/01/13 08:15:46;;;;;;;29.15;17.45;;;;;;;;;;5014214;28;20048;-89
2023/01/13 08:18:12;;;;;;;26.63;16.50;;;;;;;;;;5013858;28;20575;-88
2023/01/13 08:20:41;;;;;;;23.73;16.58;;;;;;;;;;5014397;28;20021;-91
2023/01/13 08:23:08;;;;;;;21.48;15.38;;;;;;;;;;5014153;28;20050;-90
2023/01/13 08:25:34;;;;;;;23.38;14.77;;;;;;;;;;5014265;28;20041;-90
2023/01/13 08:28:00;;;;;;;24.27;13.73;;;;;;;;;;5014026;28;20029;-90
2023/01/13 08:30:40;;;;;;;20.55;14.10;;;;;;;;;;5014736;28;20033;-90
2023/01/13 08:33:13;;;;;;;23.00;14.10;;;;;;;;;;5019907;28;20056;-90
2023/01/13 08:35:40;;;;;;;23.02;12.68;;;;;;;;;;5013837;28;20026;-89
2023/01/13 08:38:07;;;;;;;21.23;14.63;;;;;;;;;;5013234;28;20129;-89
2023/01/13 08:40:33;;;;;;;26.17;15.27;;;;;;;;;;5013702;28;20566;-89
2023/01/13 08:42:59;;;;;;;18.48;13.38;;;;;;;;;;5013715;28;20042;-90
2023/01/13 08:45:25;;;;;;;20.13;12.18;;;;;;;;;;5013647;28;20022;-90
2023/01/13 08:47:52;;;;;;;22.67;14.77;;;;;;;;;;5013699;28;20530;-88
2023/01/13 08:50:21;;;;;;;16.63;11.88;;;;;;;;;;5013067;28;20489;-91
2023/01/13 08:52:47;;;;;;;16.23;10.93;;;;;;;;;;5013807;28;20107;-88
2023/01/13 08:55:13;;;;;;;16.70;11.88;;;;;;;;;;5012749;28;20021;-89
2023/01/13 08:57:39;;;;;;;16.08;10.90;;;;;;;;;;5012788;28;20490;-89
2023/01/13 09:00:06;;;;;;;15.50;10.80;;;;;;;;;;5019853;28;20029;-89
2023/01/13 09:02:32;;;;;;;15.57;10.57;;;;;;;;;;5025669;28;20037;-90
2023/01/13 09:05:03;;;;;;;16.38;11.13;;;;;;;;;;5012596;28;20057;-92
2023/01/13 09:07:29;;;;;;;16.10;11.27;;;;;;;;;;5013200;28;20072;-90
2023/01/13 09:09:56;;;;;;;14.45;10.65;;;;;;;;;;5012629;28;20521;-91
2023/01/13 09:15:07;;;;;;;15.18;11.07;;;;;;;;;;5015134;28;20092;-90
2023/01/13 09:17:34;;;;;;;13.75;10.52;;;;;;;;;;5014257;28;20064;-90
2023/01/13 09:20:00;;;;;;;12.82;9.70;;;;;;;;;;5012973;28;20025;-89
2023/01/13 09:22:27;;;;;;;14.07;9.82;;;;;;;;;;5011681;28;20068;-89
2023/01/13 09:24:54;;;;;;;13.77;10.27;;;;;;;;;;5012166;28;20026;-91
2023/01/13 09:27:20;;;;;;;14.18;10.38;;;;;;;;;;5012502;28;20140;-89
2023/01/13 09:29:46;;;;;;;15.48;11.85;;;;;;;;;;5012469;28;20044;-89
2023/01/13 09:32:13;;;;;;;15.82;11.20;;;;;;;;;;5013032;28;20486;-89
2023/01/13 09:34:58;;;;;;;15.70;11.40;;;;;;;;;;5012653;28;20030;-89
2023/01/13 09:37:25;;;;;;;15.30;11.18;;;;;;;;;;5012276;28;20037;-89
2023/01/13 09:39:51;;;;;;;16.90;11.32;;;;;;;;;;5016454;28;20030;-89
2023/01/13 09:45:46;;;;;;;17.63;11.07;;;;;;;;;;5004091;28;20380;-92
2023/01/13 09:48:12;;;;;;;;;;;;;;;;;;5017174;28;20053;-88
2023/01/13 09:50:41;;;;;;;18.15;12.35;;;;;;;;;;5017487;28;20350;-90
2023/01/13 09:53:12;;;;;;;19.58;12.52;;;;;;;;;;5026046;28;20030;-89
2023/01/13 09:55:38;;;;;;;20.50;13.93;;;;;;;;;;5030538;28;20104;-89
2023/01/13 09:58:18;;;;;;;18.40;12.40;;;;;;;;;;5017369;28;20108;-89
2023/01/13 10:00:47;;;;;;;22.60;13.75;;;;;;;;;;5018380;28;20101;-89
2023/01/13 10:03:21;;;;;;;20.20;13.20;;;;;;;;;;5018262;28;20378;-91
2023/01/13 10:05:49;;;;;;;19.98;12.98;;;;;;;;;;5016497;28;20069;-89
2023/01/13 10:08:22;;;;;;;16.67;12.20;;;;;;;;;;5019388;28;20060;-89
2023/01/13 10:10:49;;;;;;;18.17;12.17;;;;;;;;;;5019312;28;20025;-93
2023/01/13 10:13:19;;;;;;;18.77;13.13;;;;;;;;;;5026740;28;20292;-90
2023/01/13 10:15:55;;;;;;;18.27;11.45;;;;;;;;;;5035279;28;20022;-89
2023/01/13 10:18:23;;;;;;;18.48;10.93;;;;;;;;;;5019474;28;20045;-90
2023/01/13 10:21:08;;;;;;;16.52;11.52;;;;;;;;;;5015926;28;20437;-91
2023/01/13 10:23:52;;;;;;;19.35;11.70;;;;;;;;;;5016896;28;20034;-91
2023/01/13 10:26:25;;;;;;;14.85;10.48;;;;;;;;;;5017326;28;20049;-92
2023/01/13 10:28:52;;;;;;;14.73;10.80;;;;;;;;;;5015892;28;20150;-90
2023/01/13 10:31:19;;;;;;;13.75;10.85;;;;;;;;;;5015483;28;20029;-90
2023/01/13 10:33:45;;;;;;;15.38;10.52;;;;;;;;;;5016787;28;20612;-90
2023/01/13 10:36:11;;;;;;;13.23;10.00;;;;;;;;;;5014757;28;20030;-90
2023/01/13 10:38:42;;;;;;;14.85;10.63;;;;;;;;;;5031855;28;20018;-91
2023/01/13 10:41:14;;;;;;;13.30;10.60;;;;;;;;;;5027055;28;20229;-90
2023/01/13 10:44:01;;;;;;;16.23;12.00;;;;;;;;;;5014563;28;20088;-91
2023/01/13 10:46:27;;;;;;;19.25;13.50;;;;;;;;;;5014977;28;20459;-90
2023/01/13 10:48:56;;;;;;;14.45;10.93;;;;;;;;;;5014299;28;20029;-90
2023/01/13 10:51:25;;;;;;;17.05;11.48;;;;;;;;;;5014983;28;20038;-90
2023/01/13 10:53:53;;;;;;;21.63;14.70;;;;;;;;;;5013923;28;20056;-90
2023/01/13 10:56:23;;;;;;;17.75;11.63;;;;;;;;;;5013698;28;20025;-90
2023/01/13 10:58:49;;;;;;;19.33;12.48;;;;;;;;;;5014109;28;20045;-90
2023/01/13 11:01:26;;;;;;;16.10;11.27;;;;;;;;;;5023508;28;20033;-88
2023/01/13 11:03:53;;;;;;;15.95;11.43;;;;;;;;;;5022938;28;20073;-92
2023/01/13 11:06:21;;;;;;;19.13;13.10;;;;;;;;;;5014073;28;20343;-91
2023/01/13 11:08:49;;;;;;;17.02;12.20;;;;;;;;;;5013534;28;20038;-92
2023/01/13 11:11:24;;;;;;;18.73;12.55;;;;;;;;;;5014402;28;20018;-88
2023/01/13 11:19:34;;;;;;;;;;;;;;;;;;4937014;29;20083;-89
2023/01/13 11:25:09;;;;;;;19.53;13.60;;;;;;;;;;5016633;28;20075;-92
2023/01/13 11:28:08;;;;;;;17.00;10.80;;;;;;;;;;5015683;28;20034;-91
2023/01/13 11:30:37;;;;;;;18.15;11.90;;;;;;;;;;5007346;28;20034;-91
2023/01/13 11:36:32;;;;;;;17.02;11.35;;;;;;;;;;5017516;28;20056;-88
2023/01/13 11:39:06;;;;;;;16.15;10.60;;;;;;;;;;4957196;29;20084;-90
2023/01/13 11:44:41;;;;;;;16.15;10.57;;;;;;;;;;5005492;28;20605;-91
2023/01/13 11:50:40;;;;;;;14.63;9.85;;;;;;;;;;5047140;28;20091;-90
2023/01/13 11:53:24;;;;;;;15.75;10.23;;;;;;;;;;5016144;28;20065;-90
2023/01/13 11:56:09;;;;;;;17.10;10.63;;;;;;;;;;5025809;28;20037;-90
2023/01/13 11:58:57;;;;;;;19.63;11.68;;;;;;;;;;5017108;28;20478;-90
2023/01/13 12:01:23;;;;;;;17.20;10.80;;;;;;;;;;5050376;28;20029;-90
2023/01/13 12:04:01;;;;;;;18.95;12.00;;;;;;;;;;5033755;28;20026;-87
2023/01/13 12:06:27;;;;;;;16.55;12.23;;;;;;;;;;5034434;28;20033;-92
2023/01/13 12:09:10;;;;;;;18.17;12.75;;;;;;;;;;5034365;28;20108;-90
2023/01/13 12:14:41;;;;;;;21.30;14.57;;;;;;;;;;5015401;28;20399;-91
2023/01/13 12:17:12;;;;;;;20.67;14.63;;;;;;;;;;5029873;28;20033;-90
2023/01/13 12:19:38;;;;;;;20.98;14.98;;;;;;;;;;5029911;28;20100;-90
2023/01/13 12:22:10;;;;;;;20.42;14.40;;;;;;;;;;5045071;28;20030;-90
2023/01/13 12:24:42;;;;;;;22.20;14.23;;;;;;;;;;5014226;28;20061;-89
2023/01/13 12:27:15;;;;;;;18.42;12.52;;;;;;;;;;5013946;28;20026;-91
2023/01/13 12:29:42;;;;;;;17.88;12.82;;;;;;;;;;5017135;28;20030;-89
2023/01/13 12:32:12;;;;;;;19.00;12.95;;;;;;;;;;5014851;28;20041;-89
2023/01/13 12:34:57;;;;;;;17.30;12.90;;;;;;;;;;5013940;28;20033;-90
2023/01/13 12:37:51;;;;;;;19.15;12.75;;;;;;;;;;5013035;28;20025;-90
2023/01/13 12:40:37;;;;;;;22.50;12.82;;;;;;;;;;5012634;28;20041;-90
2023/01/13 12:46:19;;;;;;;21.67;14.02;;;;;;;;;;5015711;28;20045;-89
2023/01/13 12:48:54;;;;;;;19.75;13.70;;;;;;;;;;5013697;28;20030;-89
2023/01/13 12:51:24;;;;;;;20.58;13.88;;;;;;;;;;5013681;28;20022;-89
2023/01/13 12:53:51;;;;;;;20.80;14.88;;;;;;;;;;5015623;28;20485;-90
2023/01/13 12:56:36;;;;;;;18.45;12.85;;;;;;;;;;5024572;28;20052;-90
2023/01/13 12:59:18;;;;;;;18.58;12.95;;;;;;;;;;5046476;28;20049;-89
2023/01/13 13:01:46;;;;;;;22.17;13.55;;;;;;;;;;5054227;28;20031;-89
2023/01/13 13:04:16;;;;;;;19.63;14.07;;;;;;;;;;5035447;28;20041;-90
2023/01/13 13:06:46;;;;;;;20.40;13.40;;;;;;;;;;5041326;28;20037;-90
2023/01/13 13:09:22;;;;;;;18.10;12.20;;;;;;;;;;5047321;28;20124;-89
2023/01/13 13:14:41;;;;;;;20.55;13.07;;;;;;;;;;5022777;28;20034;-88
2023/01/13 13:17:19;;;;;;;20.02;13.10;;;;;;;;;;5048821;28;20022;-89
2023/01/13 13:19:47;;;;;;;18.70;13.15;;;;;;;;;;5032841;28;20032;-88
2023/01/13 13:22:13;;;;;;;18.42;12.93;;;;;;;;;;5032743;28;20390;-89
2023/01/13 13:24:40;;;;;;;18.95;12.93;;;;;;;;;;5032947;28;20051;-91
2023/01/13 13:27:25;;;;;;;18.80;13.18;;;;;;;;;;5032771;28;20021;-91
2023/01/13 13:30:19;;;;;;;17.95;12.60;;;;;;;;;;5032795;28;20029;-90
2023/01/13 13:32:54;;;;;;;17.23;13.45;;;;;;;;;;5033408;28;20025;-92
2023/01/13 13:35:50;;;;;;;25.85;13.80;;;;;;;;;;5032834;28;20034;-93
2023/01/13 13:46:46;;;;;;;20.17;14.68;;;;;;;;;;5038313;28;20044;-90
2023/01/13 13:49:16;;;;;;;20.25;14.00;;;;;;;;;;5038195;28;20045;-91
2023/01/13 13:52:00;;;;;;;21.63;14.68;;;;;;;;;;5013904;28;20121;-90
2023/01/13 13:54:26;;;;;;;22.55;15.90;;;;;;;;;;5012771;28;20093;-90
2023/01/13 13:56:53;;;;;;;23.17;16.40;;;;;;;;;;5014133;28;20030;-90
2023/01/13 13:59:22;;;;;;;21.67;14.52;;;;;;;;;;5027420;28;20057;-90
2023/01/13 14:09:41;;;;;;;22.02;15.25;;;;;;;;;;5629613;23;20073;-88
2023/01/13 14:12:24;;;;;;;20.88;15.20;;;;;;;;;;5015264;28;20037;-89
2023/01/13 14:14:56;;;;;;;19.40;13.70;;;;;;;;;;5015593;28;20038;-89
2023/01/13 14:17:25;;;;;;;20.83;14.75;;;;;;;;;;5014556;28;20288;-87
2023/01/13 14:20:04;;;;;;;21.25;14.50;;;;;;;;;;5015239;28;20022;-89
2023/01/13 14:22:39;;;;;;;22.30;15.10;;;;;;;;;;5014565;28;20053;-90
2023/01/13 14:25:25;;;;;;;18.10;13.77;;;;;;;;;;5012896;28;20080;-91
2023/01/13 14:27:55;;;;;;;20.73;14.48;;;;;;;;;;5014959;28;20037;-88
2023/01/13 14:30:25;;;;;;;20.42;14.50;;;;;;;;;;5012903;28;20030;-92
2023/01/13 14:33:23;;;;;;;27.05;16.02;;;;;;;;;;5020625;28;20033;-92
2023/01/13 14:36:08;;;;;;;19.58;13.05;;;;;;;;;;5017468;28;20094;-91
2023/01/13 14:38:35;;;;;;;25.15;16.15;;;;;;;;;;5006679;28;20062;-92
2023/01/13 14:41:18;;;;;;;25.38;17.73;;;;;;;;;;5013699;28;20060;-89
2023/01/13 14:43:48;;;;;;;20.40;13.93;;;;;;;;;;5011390;28;20037;-88
2023/01/13 14:46:49;;;;;;;21.08;14.55;;;;;;;;;;5016092;28;20057;-87
2023/01/13 14:49:36;;;;;;;24.30;15.38;;;;;;;;;;4960046;28;20043;-89
2023/01/13 14:52:21;;;;;;;23.42;15.40;;;;;;;;;;4954247;28;20049;-91
2023/01/13 14:55:24;;;;;;;24.95;17.58;;;;;;;;;;5021572;28;20034;-88
2023/01/13 14:57:51;;;;;;;23.80;16.27;;;;;;;;;;4999718;28;20037;-88
2023/01/13 15:00:22;;;;;;;20.48;14.85;;;;;;;;;;5014723;28;20490;-91
2023/01/13 15:02:57;;;;;;;22.35;14.57;;;;;;;;;;5022098;28;20030;-88
2023/01/13 15:05:26;;;;;;;21.27;15.88;;;;;;;;;;5022453;28;20410;-87
2023/01/13 15:08:04;;;;;;;24.52;16.88;;;;;;;;;;5014966;28;20155;-89
2023/01/13 15:10:37;;;;;;;24.27;16.70;;;;;;;;;;5015424;28;20584;-89
2023/01/13 15:13:05;;;;;;;26.25;15.57;;;;;;;;;;5016150;28;20037;-89
2023/01/13 15:15:44;;;;;;;24.92;16.35;;;;;;;;;;5015911;28;20056;-89
2023/01/13 15:18:16;;;;;;;26.38;16.88;;;;;;;;;;5014959;28;20034;-90
2023/01/13 15:20:44;;;;;;;23.55;16.75;;;;;;;;;;5016017;28;20212;-90
2023/01/13 15:23:10;;;;;;;26.15;17.77;;;;;;;;;;5015390;28;20108;-86
2023/01/13 15:25:38;;;;;;;42.53;27.25;;;;;;;;;;5015916;28;20056;-90
2023/01/13 15:28:11;;;;;;;31.35;20.95;;;;;;;;;;5015479;28;20113;-89
2023/01/13 15:30:37;;;;;;;;;;;;;;;;;;5017846;28;20025;-88
2023/01/13 15:33:03;;;;;;;26.70;16.63;;;;;;;;;;5016231;28;19906;-88
2023/01/13 15:35:29;;;;;;;26.20;16.83;;;;;;;;;;5025326;28;20060;-88
2023/01/13 15:37:56;;;;;;;25.33;18.20;;;;;;;;;;5027528;28;20378;-88
2023/01/13 15:40:25;;;;;;;27.70;18.40;;;;;;;;;;5015669;28;20034;-88
2023/01/13 15:48:22;;;;;;;24.90;16.58;;;;;;;;;;5016389;28;20040;-89
2023/01/13 15:50:49;;;;;;;25.48;17.35;;;;;;;;;;5015459;28;20389;-88
2023/01/13 15:53:15;;;;;;;25.20;17.77;;;;;;;;;;5016653;28;20029;-89
2023/01/13 15:55:54;;;;;;;25.63;18.20;;;;;;;;;;5022595;28;20028;-89
2023/01/13 15:58:39;;;;;;;28.83;19.08;;;;;;;;;;5069528;23;20057;-89
2023/01/13 16:01:08;;;;;;;32.15;20.25;;;;;;;;;;5156137;23;20049;-89
2023/01/13 16:03:34;;;;;;;22.35;16.13;;;;;;;;;;5034092;28;20402;-89
2023/01/13 16:06:00;;;;;;;25.65;17.83;;;;;;;;;;5034525;28;20028;-90
2023/01/13 16:08:26;;;;;;;30.17;20.45;;;;;;;;;;5034100;28;20120;-89
2023/01/13 16:10:58;;;;;;;30.13;20.90;;;;;;;;;;5034242;28;20022;-88
2023/01/13 16:13:25;;;;;;;33.40;22.20;;;;;;;;;;5033199;28;20402;-88
2023/01/13 16:15:51;;;;;;;40.05;25.00;;;;;;;;;;5034277;28;20060;-87
2023/01/13 16:18:19;;;;;;;38.50;26.90;;;;;;;;;;5033722;28;20017;-88
2023/01/13 16:20:46;;;;;;;36.90;25.80;;;;;;;;;;5033986;28;20032;-88
2023/01/13 16:23:15;;;;;;;31.15;23.17;;;;;;;;;;5033883;28;20037;-87
2023/01/13 16:25:45;;;;;;;38.00;24.65;;;;;;;;;;5035008;28;20021;-89
2023/01/13 16:28:25;;;;;;;37.20;22.50;;;;;;;;;;5034602;28;20051;-87
2023/01/13 16:30:51;;;;;;;40.42;24.92;;;;;;;;;;5040539;28;20037;-87